Time;durP1;ratioP1;P1;durP2;ratioP2;P2;SDS_P1;SDS_P2;PMS_P1;PMS_P2;Temp;Humidity;BMP_temperature;BMP_pressure;BME280_temperature;BME280_humidity;BME280_pressure;Samples;Min_cycle;Max_cycle;Signal;HPM_P1;HPM_P2
2023/09/14 00:01:15;;;;;;;0.47;0.20;;;;;;;16.51;96.79;100750.91;5009139;28;20566;-48
2023/09/14 00:03:42;;;;;;;0.50;0.20;;;;;;;16.25;97.86;100758.31;5011855;28;21016;-48
2023/09/14 00:06:09;;;;;;;0.50;0.20;;;;;;;16.23;97.69;100753.97;5001765;28;20485;-49
2023/09/14 00:08:35;;;;;;;0.50;0.20;;;;;;;16.21;98.25;100756.72;5010754;28;20481;-48
2023/09/14 00:11:03;;;;;;;0.50;0.20;;;;;;;16.14;98.35;100747.19;5004970;28;20536;-49
2023/09/14 00:13:30;;;;;;;0.50;0.20;;;;;;;16.28;98.02;100755.50;5007832;28;20457;-49
2023/09/14 00:15:56;;;;;;;0.50;0.20;;;;;;;16.26;97.92;100749.31;5004759;28;20560;-48
2023/09/14 00:18:23;;;;;;;0.40;0.20;;;;;;;16.17;98.41;100747.06;5001425;28;20543;-47
2023/09/14 00:20:52;;;;;;;0.50;0.20;;;;;;;16.15;97.76;100743.56;5010958;28;20566;-48
2023/09/14 00:23:22;;;;;;;0.50;0.20;;;;;;;16.06;98.33;100744.00;5010566;28;20453;-47
2023/09/14 00:25:49;;;;;;;0.50;0.20;;;;;;;16.06;98.42;100752.03;5005629;28;20543;-48
2023/09/14 00:28:17;;;;;;;0.50;0.20;;;;;;;15.87;98.69;100749.25;5000699;28;20622;-49
2023/09/14 00:30:43;;;;;;;0.40;0.20;;;;;;;15.70;99.47;100752.66;5002589;28;20530;-47
2023/09/14 00:33:10;;;;;;;0.50;0.20;;;;;;;15.89;98.57;100749.19;5007762;28;20541;-48
2023/09/14 00:35:36;;;;;;;0.50;0.20;;;;;;;15.77;98.33;100755.09;5003320;28;20428;-47
2023/09/14 00:38:03;;;;;;;0.40;0.20;;;;;;;15.80;98.60;100750.47;5007950;28;20446;-47
2023/09/14 00:40:29;;;;;;;0.50;0.20;;;;;;;15.54;98.41;100753.34;5005610;28;20463;-48
2023/09/14 00:42:55;;;;;;;0.40;0.20;;;;;;;15.53;99.18;100748.94;5001117;28;20514;-47
2023/09/14 00:45:25;;;;;;;0.40;0.20;;;;;;;15.51;99.02;100750.81;5002172;28;20457;-48
2023/09/14 00:47:58;;;;;;;0.50;0.30;;;;;;;15.43;99.32;100752.91;5007430;28;20456;-48
2023/09/14 00:50:26;;;;;;;0.50;0.20;;;;;;;15.46;99.32;100750.09;5006963;28;20472;-48
2023/09/14 00:52:56;;;;;;;0.50;0.20;;;;;;;15.47;98.79;100749.16;5001622;28;20454;-48
2023/09/14 00:55:23;;;;;;;0.40;0.20;;;;;;;15.05;99.03;100750.84;5021314;28;20467;-49
2023/09/14 00:57:51;;;;;;;0.40;0.20;;;;;;;15.11;99.93;100750.63;5006200;28;20547;-47
2023/09/14 01:00:18;;;;;;;0.40;0.20;;;;;;;15.31;99.42;100749.78;5007230;28;20503;-48
2023/09/14 01:02:45;;;;;;;0.40;0.20;;;;;;;15.13;99.04;100747.88;5009440;28;20431;-48
2023/09/14 01:05:15;;;;;;;0.50;0.20;;;;;;;15.12;98.56;100754.16;5011700;28;20432;-48
2023/09/14 01:07:41;;;;;;;0.40;0.20;;;;;;;15.03;98.68;100754.50;5002678;28;20555;-48
2023/09/14 01:10:09;;;;;;;0.40;0.20;;;;;;;14.86;98.94;100748.97;5000220;28;20556;-48
2023/09/14 01:12:37;;;;;;;0.40;0.20;;;;;;;14.89;98.84;100752.38;5004696;28;20481;-49
2023/09/14 01:15:19;;;;;;;0.47;0.20;;;;;;;14.78;99.71;100749.25;5006840;28;20459;-48
2023/09/14 01:18:11;;;;;;;0.50;0.20;;;;;;;14.85;99.38;100739.19;5004668;28;20444;-48
2023/09/14 01:20:47;;;;;;;0.40;0.20;;;;;;;14.95;98.44;100749.47;5010582;28;20496;-48
2023/09/14 01:23:35;;;;;;;0.40;0.20;;;;;;;14.68;99.93;100751.41;5010602;28;20547;-48
2023/09/14 01:26:03;;;;;;;0.40;0.20;;;;;;;14.79;99.65;100750.97;5005972;28;20544;-47
2023/09/14 01:28:29;;;;;;;0.40;0.20;;;;;;;14.79;99.40;100756.34;5003147;28;20459;-48
2023/09/14 01:30:56;;;;;;;0.40;0.20;;;;;;;14.84;99.57;100757.06;5009388;28;20448;-47
2023/09/14 01:33:25;;;;;;;0.40;0.20;;;;;;;14.66;99.78;100757.72;4999900;28;20639;-48
2023/09/14 01:35:58;;;;;;;0.40;0.20;;;;;;;14.73;100.00;100759.25;5013449;28;20448;-48
2023/09/14 01:38:26;;;;;;;0.40;0.20;;;;;;;14.70;99.78;100759.38;5000842;28;20819;-48
2023/09/14 01:40:54;;;;;;;0.40;0.20;;;;;;;14.62;100.00;100759.66;4999234;28;20496;-48
2023/09/14 01:43:20;;;;;;;0.40;0.20;;;;;;;14.44;100.00;100755.88;5005117;28;20430;-48
2023/09/14 01:45:47;;;;;;;0.40;0.20;;;;;;;14.46;100.00;100767.38;5005055;28;20603;-48
2023/09/14 01:48:18;;;;;;;0.40;0.20;;;;;;;14.37;100.00;100769.47;5005054;28;20453;-47
2023/09/14 01:50:45;;;;;;;0.40;0.20;;;;;;;14.54;100.00;100766.25;5010754;28;20495;-47
2023/09/14 01:53:12;;;;;;;0.40;0.20;;;;;;;14.52;100.00;100764.47;5003809;28;20939;-48
2023/09/14 01:55:38;;;;;;;0.40;0.20;;;;;;;14.55;100.00;100770.66;5016651;28;20448;-47
2023/09/14 01:58:05;;;;;;;0.40;0.20;;;;;;;14.46;100.00;100759.38;5001364;28;20450;-51
2023/09/14 02:00:32;;;;;;;0.40;0.20;;;;;;;14.41;100.00;100765.78;5006016;28;20505;-47
2023/09/14 02:02:58;;;;;;;0.50;0.20;;;;;;;14.37;100.00;100766.81;5010381;28;20456;-47
2023/09/14 02:05:25;;;;;;;0.40;0.20;;;;;;;14.39;100.00;100765.84;4999380;28;20448;-47
2023/09/14 02:07:52;;;;;;;0.40;0.20;;;;;;;14.49;100.00;100764.59;5002947;28;20453;-48
2023/09/14 02:10:21;;;;;;;0.40;0.20;;;;;;;14.39;100.00;100762.28;5006016;28;20516;-47
2023/09/14 02:12:49;;;;;;;0.40;0.20;;;;;;;14.32;100.00;100767.00;4993904;28;20461;-47
2023/09/14 02:15:16;;;;;;;0.40;0.20;;;;;;;14.41;100.00;100777.38;5006229;28;20453;-47
2023/09/14 02:17:43;;;;;;;0.40;0.20;;;;;;;14.43;100.00;100770.16;5004409;28;20448;-48
2023/09/14 02:20:10;;;;;;;0.40;0.20;;;;;;;14.30;100.00;100768.84;5008125;28;20497;-47
2023/09/14 02:22:36;;;;;;;0.40;0.20;;;;;;;14.30;100.00;100778.69;5012395;28;20477;-47
2023/09/14 02:25:03;;;;;;;0.40;0.20;;;;;;;13.91;100.00;100776.47;4999539;28;20514;-48
2023/09/14 02:27:30;;;;;;;0.40;0.20;;;;;;;13.99;100.00;100770.88;5000249;28;20863;-48
2023/09/14 02:29:56;;;;;;;0.40;0.20;;;;;;;14.02;100.00;100770.75;5005852;28;20470;-48
2023/09/14 02:32:23;;;;;;;0.40;0.20;;;;;;;13.94;99.57;100781.72;5005031;28;20909;-48
2023/09/14 02:34:49;;;;;;;0.40;0.20;;;;;;;13.95;99.97;100780.78;4999055;28;20543;-48
2023/09/14 02:37:16;;;;;;;0.40;0.20;;;;;;;13.81;99.70;100772.38;5000045;28;20958;-48
2023/09/14 02:39:42;;;;;;;0.40;0.20;;;;;;;13.79;100.00;100772.41;5007721;28;20504;-48
2023/09/14 02:42:09;;;;;;;0.40;0.20;;;;;;;13.88;100.00;100766.75;5000198;28;20877;-47
2023/09/14 02:44:37;;;;;;;0.40;0.20;;;;;;;13.73;99.99;100777.97;5005338;28;20464;-47
2023/09/14 02:47:03;;;;;;;0.40;0.20;;;;;;;13.77;100.00;100790.31;5009080;28;20427;-49
2023/09/14 02:49:30;;;;;;;0.40;0.20;;;;;;;13.84;100.00;100785.59;4999057;28;20472;-48
2023/09/14 02:51:56;;;;;;;0.40;0.20;;;;;;;13.86;100.00;100792.69;5012516;28;20456;-51
2023/09/14 02:54:23;;;;;;;0.40;0.20;;;;;;;13.89;98.34;100792.56;5017900;28;20443;-51
2023/09/14 02:56:49;;;;;;;0.40;0.20;;;;;;;13.82;98.79;100790.13;5013300;28;20531;-51
2023/09/14 02:59:16;;;;;;;0.40;0.20;;;;;;;13.61;99.43;100786.41;4999974;28;20564;-52
2023/09/14 03:01:44;;;;;;;0.40;0.20;;;;;;;13.54;98.88;100785.72;5009780;28;20549;-52
2023/09/14 03:04:12;;;;;;;0.40;0.20;;;;;;;13.52;99.74;100795.56;5002842;28;20453;-52
2023/09/14 03:06:39;;;;;;;0.40;0.20;;;;;;;13.54;99.74;100800.88;5002333;28;20545;-51
2023/09/14 03:09:06;;;;;;;0.40;0.20;;;;;;;13.49;99.73;100798.34;5008504;28;21012;-51
2023/09/14 03:11:32;;;;;;;0.40;0.20;;;;;;;13.54;98.67;100806.22;5009150;28;20444;-49
2023/09/14 03:13:59;;;;;;;0.40;0.20;;;;;;;13.43;99.51;100805.69;5015441;28;20869;-52
2023/09/14 03:16:26;;;;;;;0.40;0.20;;;;;;;13.41;99.77;100802.19;5002283;28;20947;-52
2023/09/14 03:18:52;;;;;;;0.40;0.20;;;;;;;13.28;98.85;100804.38;5008182;28;20476;-50
2023/09/14 03:21:26;;;;;;;0.40;0.20;;;;;;;13.23;99.54;100804.53;5009643;28;20488;-51
2023/09/14 03:23:53;;;;;;;0.40;0.20;;;;;;;13.19;99.33;100805.56;5007318;28;20966;-52
2023/09/14 03:26:19;;;;;;;0.40;0.20;;;;;;;13.26;99.51;100806.22;5010512;28;20459;-52
2023/09/14 03:28:48;;;;;;;0.40;0.20;;;;;;;13.37;99.68;100812.09;5007171;28;20479;-52
2023/09/14 03:31:16;;;;;;;0.40;0.20;;;;;;;13.15;99.37;100809.19;5008866;28;20451;-52
2023/09/14 03:33:45;;;;;;;0.40;0.20;;;;;;;12.99;98.86;100816.78;5004781;28;20448;-51
2023/09/14 03:36:12;;;;;;;0.40;0.20;;;;;;;13.00;99.95;100813.19;5001844;28;20938;-52
2023/09/14 03:38:38;;;;;;;0.40;0.20;;;;;;;12.83;99.20;100828.84;5007645;28;20453;-50
2023/09/14 03:41:05;;;;;;;0.40;0.20;;;;;;;12.79;99.79;100834.31;5001419;28;20604;-51
2023/09/14 03:43:31;;;;;;;0.40;0.20;;;;;;;12.87;99.74;100838.50;5014394;28;20534;-51
2023/09/14 03:45:58;;;;;;;0.40;0.30;;;;;;;12.68;99.94;100838.16;4984309;28;20511;-50
2023/09/14 03:48:25;;;;;;;0.40;0.20;;;;;;;12.79;99.39;100828.97;5005211;28;20449;-51
2023/09/14 03:50:58;;;;;;;0.40;0.20;;;;;;;12.71;99.16;100829.19;5011420;28;20930;-51
2023/09/14 03:53:25;;;;;;;0.40;0.20;;;;;;;12.65;98.39;100827.59;5004296;28;20488;-52
2023/09/14 03:55:53;;;;;;;0.40;0.20;;;;;;;12.81;99.25;100816.47;5020756;28;20535;-51
2023/09/14 03:58:20;;;;;;;0.40;0.20;;;;;;;12.81;98.53;100821.81;5009452;28;20977;-51
2023/09/14 04:00:46;;;;;;;0.40;0.20;;;;;;;12.64;99.96;100823.16;5001184;28;20502;-51
2023/09/14 04:03:13;;;;;;;0.40;0.20;;;;;;;12.69;100.00;100825.69;5014755;28;20460;-51
2023/09/14 04:05:39;;;;;;;0.40;0.20;;;;;;;12.52;100.00;100827.97;5001458;28;20449;-51
2023/09/14 04:08:07;;;;;;;0.40;0.20;;;;;;;12.50;100.00;100824.47;5008026;28;20523;-52
2023/09/14 04:10:36;;;;;;;0.40;0.20;;;;;;;12.69;100.00;100825.69;5000617;28;20464;-51
2023/09/14 04:13:32;;;;;;;0.40;0.30;;;;;;;12.78;99.92;100833.44;5001864;28;20492;-51
2023/09/14 04:16:04;;;;;;;0.40;0.20;;;;;;;12.68;99.97;100830.16;5004787;28;20789;-51
2023/09/14 04:18:35;;;;;;;0.40;0.20;;;;;;;12.62;100.00;100826.81;5001028;28;20445;-51
2023/09/14 04:21:02;;;;;;;0.40;0.20;;;;;;;12.61;99.76;100831.25;5012038;28;20520;-52
2023/09/14 04:23:29;;;;;;;0.40;0.20;;;;;;;12.58;100.00;100827.78;5009494;28;20453;-51
2023/09/14 04:25:56;;;;;;;0.40;0.20;;;;;;;12.90;99.37;100822.41;5005829;28;20488;-52
2023/09/14 04:28:22;;;;;;;0.40;0.20;;;;;;;12.59;99.49;100832.19;5001147;28;20499;-51
2023/09/14 04:30:52;;;;;;;0.40;0.20;;;;;;;12.58;100.00;100827.78;5004456;28;20481;-51
2023/09/14 04:33:19;;;;;;;0.40;0.20;;;;;;;12.44;100.00;100828.16;5011065;28;20453;-51
2023/09/14 04:35:46;;;;;;;0.40;0.20;;;;;;;12.46;100.00;100831.66;5009117;28;21037;-51
2023/09/14 04:38:13;;;;;;;0.40;0.20;;;;;;;12.45;99.42;100838.78;5000532;28;20954;-51
2023/09/14 04:40:43;;;;;;;0.40;0.20;;;;;;;12.40;98.73;100840.72;5001587;28;20501;-52
2023/09/14 04:43:10;;;;;;;0.40;0.20;;;;;;;12.27;99.31;100843.75;5008322;28;20457;-52
2023/09/14 04:45:37;;;;;;;0.40;0.20;;;;;;;12.23;99.48;100847.44;5011282;28;20485;-51
2023/09/14 04:48:05;;;;;;;0.40;0.20;;;;;;;12.18;99.52;100846.66;5006514;28;20465;-52
2023/09/14 04:50:32;;;;;;;0.40;0.30;;;;;;;12.08;99.72;100854.03;5003005;28;20516;-50
2023/09/14 04:52:59;;;;;;;0.40;0.20;;;;;;;12.09;99.71;100847.78;5001292;28;20563;-51
2023/09/14 04:55:25;;;;;;;0.40;0.20;;;;;;;12.12;100.00;100853.91;5018565;28;20449;-52
2023/09/14 04:57:52;;;;;;;0.40;0.20;;;;;;;12.09;100.00;100859.31;5005633;28;20473;-51
2023/09/14 05:00:18;;;;;;;0.40;0.20;;;;;;;12.09;100.00;100854.00;5006796;28;20535;-51
2023/09/14 05:02:45;;;;;;;0.40;0.20;;;;;;;12.16;100.00;100857.34;5009240;28;20460;-51
2023/09/14 05:05:12;;;;;;;0.40;0.20;;;;;;;12.19;100.00;100851.06;5000254;28;20481;-50
2023/09/14 05:07:39;;;;;;;0.40;0.20;;;;;;;12.13;100.00;100854.78;5005059;28;20906;-51
2023/09/14 05:10:07;;;;;;;0.40;0.20;;;;;;;12.28;100.00;100861.50;5000100;28;20556;-50
2023/09/14 05:12:34;;;;;;;0.40;0.20;;;;;;;12.06;100.00;100858.50;5001040;28;20456;-51
2023/09/14 05:15:02;;;;;;;0.40;0.20;;;;;;;11.98;100.00;100864.03;5008953;28;20875;-51
2023/09/14 05:17:29;;;;;;;0.40;0.20;;;;;;;12.00;100.00;100862.19;5002886;28;20440;-52
2023/09/14 05:19:55;;;;;;;0.40;0.20;;;;;;;12.06;100.00;100859.41;5010386;28;20481;-52
2023/09/14 05:22:25;;;;;;;0.40;0.20;;;;;;;12.14;100.00;100867.19;5009739;28;20507;-51
2023/09/14 05:24:53;;;;;;;0.40;0.20;;;;;;;12.03;100.00;100869.25;5003106;28;20541;-51
2023/09/14 05:27:20;;;;;;;0.40;0.20;;;;;;;11.66;100.00;100862.13;5007711;28;20790;-51
2023/09/14 05:29:46;;;;;;;0.40;0.30;;;;;;;11.77;100.00;100864.53;5008754;28;20564;-52
2023/09/14 05:32:12;;;;;;;0.40;0.20;;;;;;;11.99;100.00;100863.13;4995469;28;20462;-52
2023/09/14 05:34:39;;;;;;;0.40;0.20;;;;;;;12.03;100.00;100866.56;5009732;28;20456;-52
2023/09/14 05:37:05;;;;;;;0.40;0.20;;;;;;;12.16;100.00;100870.69;5005398;28;20455;-52
2023/09/14 05:39:32;;;;;;;0.40;0.20;;;;;;;12.37;100.00;100878.13;4999279;28;20469;-51
2023/09/14 05:41:58;;;;;;;0.40;0.20;;;;;;;12.65;100.00;100870.25;5003986;28;20488;-52
2023/09/14 05:44:25;;;;;;;0.40;0.20;;;;;;;12.73;100.00;100872.69;5005640;28;20462;-49
2023/09/14 05:46:52;;;;;;;0.40;0.20;;;;;;;12.84;100.00;100877.72;5003107;28;20456;-52
2023/09/14 05:49:18;;;;;;;0.40;0.20;;;;;;;13.00;100.00;100879.91;5003105;28;21037;-51
2023/09/14 05:51:45;;;;;;;0.40;0.20;;;;;;;13.29;100.00;100876.44;5007230;28;20532;-52
2023/09/14 05:54:11;;;;;;;0.40;0.20;;;;;;;13.31;100.00;100881.72;5010884;28;20451;-52
2023/09/14 05:56:38;;;;;;;0.40;0.20;;;;;;;13.45;100.00;100879.50;5015247;28;20492;-52
2023/09/14 05:59:04;;;;;;;0.40;0.20;;;;;;;13.65;100.00;100881.53;5003833;28;20933;-49
2023/09/14 06:01:43;;;;;;;0.40;0.20;;;;;;;13.46;100.00;100880.38;5005363;28;20492;-49
2023/09/14 06:04:09;;;;;;;0.40;0.20;;;;;;;13.48;100.00;100881.22;5002716;28;20445;-49
2023/09/14 06:06:37;;;;;;;0.40;0.20;;;;;;;13.78;100.00;100882.03;5006109;28;20511;-51
2023/09/14 06:09:04;;;;;;;0.40;0.20;;;;;;;13.76;100.00;100878.53;5006745;28;20484;-50
2023/09/14 06:11:30;;;;;;;0.40;0.20;;;;;;;13.93;100.00;100884.19;5004961;28;20453;-50
2023/09/14 06:13:57;;;;;;;0.40;0.20;;;;;;;13.99;100.00;100885.81;4999551;28;21019;-50
2023/09/14 06:16:23;;;;;;;9.83;4.23;;;;;;;14.06;100.00;100892.69;4998690;28;20537;-51
2023/09/14 06:18:50;;;;;;;0.40;0.20;;;;;;;14.06;100.00;100885.53;5005433;28;20520;-52
2023/09/14 06:21:18;;;;;;;0.40;0.20;;;;;;;14.24;100.00;100884.03;5003278;28;20580;-50
2023/09/14 06:23:45;;;;;;;0.40;0.20;;;;;;;14.40;100.00;100885.28;5005026;28;21018;-52
2023/09/14 06:26:13;;;;;;;0.40;0.20;;;;;;;14.33;100.00;100886.41;5002944;28;20445;-50
2023/09/14 06:28:39;;;;;;;0.40;0.20;;;;;;;14.20;100.00;100885.94;5000308;28;20457;-50
2023/09/14 06:31:06;;;;;;;0.40;0.20;;;;;;;14.27;100.00;100885.75;4998072;28;20866;-51
2023/09/14 06:33:32;;;;;;;0.40;0.20;;;;;;;14.21;100.00;100881.47;5010402;28;20820;-50
2023/09/14 06:35:59;;;;;;;0.40;0.20;;;;;;;14.24;100.00;100890.25;5003013;28;20548;-52
2023/09/14 06:38:25;;;;;;;0.40;0.20;;;;;;;14.19;100.00;100892.22;5008400;28;20435;-51
2023/09/14 06:40:52;;;;;;;0.40;0.20;;;;;;;14.25;100.00;100896.47;5012638;28;20480;-51
2023/09/14 06:43:18;;;;;;;0.40;0.20;;;;;;;14.23;100.00;100890.31;5011215;28;20831;-51
2023/09/14 06:45:45;;;;;;;0.40;0.20;;;;;;;14.57;100.00;100891.88;5005723;28;20452;-52
2023/09/14 06:48:12;;;;;;;0.40;0.20;;;;;;;14.59;100.00;100898.03;5008241;28;20846;-50
2023/09/14 06:50:38;;;;;;;0.40;0.20;;;;;;;14.76;100.00;100890.28;5001642;28;20480;-49
2023/09/14 06:53:05;;;;;;;0.40;0.20;;;;;;;14.96;100.00;100885.09;4998447;28;20839;-50
2023/09/14 06:55:31;;;;;;;0.40;0.20;;;;;;;15.28;99.90;100888.34;5019031;28;20806;-50
2023/09/14 06:57:58;;;;;;;0.40;0.20;;;;;;;15.33;99.91;100894.38;5006797;28;20518;-52
2023/09/14 07:00:24;;;;;;;0.40;0.20;;;;;;;15.27;99.99;100887.47;5009266;28;20507;-51
2023/09/14 07:02:53;;;;;;;0.40;0.20;;;;;;;15.60;98.47;100889.78;5012471;28;20549;-52
2023/09/14 07:05:19;;;;;;;0.40;0.20;;;;;;;15.41;99.26;100887.81;5002738;28;20434;-51
2023/09/14 07:07:46;;;;;;;0.40;0.20;;;;;;;15.36;100.00;100895.16;5015946;28;20514;-51
2023/09/14 07:10:12;;;;;;;0.40;0.20;;;;;;;15.35;99.22;100885.38;5001117;28;20515;-51
2023/09/14 07:12:38;;;;;;;0.40;0.20;;;;;;;15.48;99.36;100893.78;5005557;28;20448;-51
2023/09/14 07:15:06;;;;;;;0.40;0.20;;;;;;;15.85;98.97;100903.09;5001750;28;20519;-51
2023/09/14 07:17:32;;;;;;;0.40;0.20;;;;;;;15.81;99.58;100902.34;5005831;28;20481;-51
2023/09/14 07:19:58;;;;;;;0.40;0.20;;;;;;;15.82;99.57;100909.44;5002218;28;20443;-50
2023/09/14 07:22:25;;;;;;;0.40;0.20;;;;;;;15.63;100.00;100913.81;5005576;28;20889;-51
2023/09/14 07:24:52;;;;;;;0.40;0.20;;;;;;;16.00;100.00;100907.81;5008686;28;21025;-50
2023/09/14 07:27:20;;;;;;;0.40;0.20;;;;;;;16.03;99.11;100906.81;5006082;28;20449;-51
2023/09/14 07:29:46;;;;;;;0.40;0.20;;;;;;;16.02;99.55;100900.59;5010929;28;20484;-51
2023/09/14 07:32:13;;;;;;;0.40;0.20;;;;;;;16.02;99.50;100908.63;5006503;28;20535;-51
2023/09/14 07:34:39;;;;;;;0.40;0.20;;;;;;;16.20;99.28;100905.19;5002114;28;20427;-51
2023/09/14 07:37:06;;;;;;;0.40;0.20;;;;;;;16.29;98.58;100907.47;5004458;28;20455;-51
2023/09/14 07:39:34;;;;;;;0.50;0.30;;;;;;;16.41;97.63;100910.59;5008156;28;20816;-51
2023/09/14 07:42:01;;;;;;;0.40;0.20;;;;;;;16.59;96.96;100907.13;5006736;28;20546;-51
2023/09/14 07:44:27;;;;;;;0.40;0.20;;;;;;;16.39;97.91;100907.97;5008388;28;20461;-50
2023/09/14 07:46:53;;;;;;;0.40;0.20;;;;;;;16.58;97.81;100910.72;5005610;28;20473;-50
2023/09/14 07:49:20;;;;;;;0.40;0.20;;;;;;;16.57;97.68;100912.53;5007297;28;20477;-52
2023/09/14 07:51:46;;;;;;;0.40;0.20;;;;;;;16.70;96.45;100912.91;5009614;28;20943;-51
2023/09/14 07:54:13;;;;;;;0.40;0.20;;;;;;;16.65;96.84;100919.41;5006365;28;20439;-52
2023/09/14 07:56:40;;;;;;;0.40;0.20;;;;;;;16.62;97.01;100917.72;5017246;28;20449;-51
2023/09/14 07:59:06;;;;;;;0.40;0.20;;;;;;;16.55;96.44;100924.28;5001842;28;20486;-50
2023/09/14 08:01:32;;;;;;;0.40;0.20;;;;;;;16.79;96.32;100925.06;5008810;28;20488;-51
2023/09/14 08:03:59;;;;;;;0.40;0.20;;;;;;;16.92;95.83;100926.28;5009316;28;20526;-50
2023/09/14 08:06:26;;;;;;;0.40;0.20;;;;;;;16.89;95.28;100921.03;5006408;28;20431;-51
2023/09/14 08:08:53;;;;;;;0.40;0.20;;;;;;;16.99;96.08;100918.78;5009932;28;20557;-50
2023/09/14 08:11:20;;;;;;;0.40;0.20;;;;;;;17.04;95.19;100928.41;5006078;28;20539;-52
2023/09/14 08:13:46;;;;;;;0.40;0.20;;;;;;;17.47;94.26;100927.31;5001467;28;20539;-51
2023/09/14 08:16:13;;;;;;;0.40;0.20;;;;;;;17.24;94.42;100929.31;5002972;28;20481;-51
2023/09/14 08:18:40;;;;;;;0.40;0.20;;;;;;;17.18;94.09;100925.09;5007827;28;20435;-52
2023/09/14 08:21:06;;;;;;;0.40;0.20;;;;;;;17.60;93.40;100922.22;5006389;28;20428;-50
2023/09/14 08:23:33;;;;;;;0.40;0.20;;;;;;;17.48;91.54;100931.75;5000974;28;20427;-51
2023/09/14 08:25:59;;;;;;;0.40;0.20;;;;;;;17.55;92.55;100929.66;5002386;28;20482;-51
2023/09/14 08:28:25;;;;;;;0.40;0.20;;;;;;;17.69;92.22;100929.03;5007672;28;20484;-51
2023/09/14 08:30:52;;;;;;;0.40;0.20;;;;;;;18.09;92.27;100929.75;5006606;28;20453;-51
2023/09/14 08:33:19;;;;;;;0.50;0.43;;;;;;;17.96;90.96;100930.38;5000810;28;20427;-52
2023/09/14 08:35:46;;;;;;;0.40;0.20;;;;;;;18.38;89.16;100931.88;5001465;28;20428;-51
2023/09/14 08:38:13;;;;;;;0.40;0.20;;;;;;;18.44;87.79;100926.19;5007792;28;20938;-50
2023/09/14 08:40:41;;;;;;;0.40;0.20;;;;;;;18.14;88.54;100922.34;5001005;28;21060;-51
2023/09/14 08:43:12;;;;;;;0.40;0.20;;;;;;;18.19;87.67;100915.78;5010582;28;20478;-52
2023/09/14 08:45:39;;;;;;;0.40;0.20;;;;;;;18.68;87.73;100920.53;5000496;28;20895;-51
2023/09/14 08:48:07;;;;;;;0.40;0.20;;;;;;;18.66;86.16;100917.03;5008211;28;20428;-51
2023/09/14 08:50:34;;;;;;;0.50;0.30;;;;;;;18.82;85.62;100916.16;5004096;28;20486;-52
2023/09/14 08:53:00;;;;;;;0.50;0.20;;;;;;;18.57;86.28;100921.03;5006065;28;20523;-51
2023/09/14 08:55:35;;;;;;;0.40;0.20;;;;;;;18.86;84.21;100912.34;5016541;28;20480;-52
2023/09/14 08:58:02;;;;;;;0.50;0.20;;;;;;;18.96;84.60;100917.25;5004065;28;20515;-52
2023/09/14 09:00:30;;;;;;;0.40;0.20;;;;;;;18.92;84.50;100924.63;5007181;28;21089;-51
2023/09/14 09:02:57;;;;;;;0.40;0.20;;;;;;;18.50;86.05;100922.28;5003757;28;21006;-50
2023/09/14 09:05:25;;;;;;;0.40;0.20;;;;;;;18.19;86.85;100925.66;5003040;28;20469;-51
2023/09/14 09:07:54;;;;;;;0.50;0.20;;;;;;;18.19;88.07;100926.53;4996955;28;20420;-52
2023/09/14 09:10:26;;;;;;;0.40;0.20;;;;;;;18.50;88.11;100920.50;5006509;28;20539;-52
2023/09/14 09:12:58;;;;;;;0.40;0.20;;;;;;;18.69;87.40;100911.50;4997377;28;20453;-52
2023/09/14 09:15:31;;;;;;;0.40;0.20;;;;;;;18.45;88.28;100922.53;5006881;28;20424;-52
2023/09/14 09:18:08;;;;;;;0.40;0.20;;;;;;;18.41;87.69;100926.34;5006522;28;20795;-51
2023/09/14 09:20:37;;;;;;;0.40;0.20;;;;;;;18.39;88.18;100914.78;5002065;28;20526;-50
2023/09/14 09:23:05;;;;;;;0.40;0.20;;;;;;;18.35;88.29;100916.75;5010539;28;20463;-50
2023/09/14 09:25:49;;;;;;;0.40;0.20;;;;;;;18.36;87.61;100909.53;5002902;28;20470;-50
2023/09/14 09:28:16;;;;;;;0.40;0.20;;;;;;;18.60;87.43;100915.50;5007525;28;20923;-50
2023/09/14 09:30:44;;;;;;;0.40;0.20;;;;;;;18.61;87.42;100922.63;5005421;28;20442;-50
2023/09/14 09:33:11;;;;;;;0.40;0.30;;;;;;;18.66;86.35;100908.97;4994671;28;20439;-50
2023/09/14 09:35:38;;;;;;;0.40;0.20;;;;;;;18.74;85.53;100912.97;4998260;28;20552;-51
2023/09/14 09:38:13;;;;;;;0.40;0.20;;;;;;;19.02;85.21;100908.81;5005884;28;20520;-50
2023/09/14 09:40:42;;;;;;;0.40;0.20;;;;;;;18.50;85.05;100908.81;5006556;28;20474;-51
2023/09/14 09:43:09;;;;;;;0.40;0.20;;;;;;;18.85;86.62;100905.22;4999513;28;20460;-51
2023/09/14 09:45:40;;;;;;;0.40;0.20;;;;;;;18.95;85.93;100908.28;5006502;28;20456;-51
2023/09/14 09:48:10;;;;;;;0.40;0.20;;;;;;;19.15;84.66;100904.50;5001967;28;20796;-51
2023/09/14 09:50:37;;;;;;;0.40;0.20;;;;;;;19.59;81.68;100903.91;5001729;28;20439;-51
2023/09/14 09:53:10;;;;;;;0.50;0.20;;;;;;;19.41;79.06;100900.38;5003563;28;20882;-50
2023/09/14 09:55:37;;;;;;;0.40;0.20;;;;;;;19.41;79.12;100886.91;5017129;28;20954;-51
2023/09/14 09:58:07;;;;;;;0.40;0.20;;;;;;;19.83;78.55;100889.91;5002786;28;20527;-51
2023/09/14 10:00:37;;;;;;;0.40;0.20;;;;;;;20.04;76.69;100893.22;5005887;28;20477;-51
2023/09/14 10:03:04;;;;;;;0.40;0.20;;;;;;;20.06;75.39;100890.41;5010801;28;20471;-50
2023/09/14 10:05:31;;;;;;;0.40;0.20;;;;;;;20.10;75.89;100884.75;4999594;28;20481;-51
2023/09/14 10:07:59;;;;;;;0.40;0.20;;;;;;;19.62;72.22;100891.16;5001855;28;20428;-50
2023/09/14 10:10:28;;;;;;;0.47;0.20;;;;;;;19.52;72.75;100882.66;5005342;28;20527;-50
2023/09/14 10:12:55;;;;;;;0.47;0.30;;;;;;;19.83;73.47;100873.72;5004485;28;20502;-51
2023/09/14 10:15:26;;;;;;;0.40;0.20;;;;;;;19.34;74.54;100875.63;4999488;28;20431;-51
2023/09/14 10:17:57;;;;;;;0.40;0.20;;;;;;;19.67;75.19;100880.97;5000309;28;20485;-51
2023/09/14 10:20:25;;;;;;;0.40;0.20;;;;;;;19.83;75.46;100886.34;5009602;28;20571;-50
2023/09/14 10:22:52;;;;;;;0.40;0.20;;;;;;;19.78;71.29;100881.22;5012551;28;20907;-50
2023/09/14 10:25:20;;;;;;;0.40;0.20;;;;;;;20.07;70.36;100876.84;5005451;28;20482;-50
2023/09/14 10:27:47;;;;;;;0.40;0.20;;;;;;;20.25;68.31;100877.56;5005458;28;20958;-49
2023/09/14 10:30:19;;;;;;;0.40;0.20;;;;;;;20.42;68.81;100873.88;4999941;28;20444;-50
2023/09/14 10:32:52;;;;;;;0.40;0.20;;;;;;;20.81;68.64;100869.72;4999482;28;20599;-51
2023/09/14 10:35:19;;;;;;;0.40;0.20;;;;;;;20.99;66.39;100869.47;5012141;28;20837;-50
2023/09/14 10:37:48;;;;;;;0.50;0.20;;;;;;;20.87;65.05;100867.53;4998811;28;20968;-51
2023/09/14 10:40:15;;;;;;;0.50;0.20;;;;;;;21.11;64.78;100862.44;5002573;28;20444;-51
2023/09/14 10:42:42;;;;;;;0.50;0.20;;;;;;;20.88;64.11;100858.44;5005471;28;20463;-50
2023/09/14 10:45:11;;;;;;;0.50;0.30;;;;;;;21.06;64.24;100867.22;5002678;28;20427;-51
2023/09/14 10:47:47;;;;;;;0.47;0.30;;;;;;;21.18;62.52;100855.66;4999238;28;20510;-51
2023/09/14 10:50:15;;;;;;;0.40;0.20;;;;;;;21.26;62.61;100857.91;5002100;28;20489;-51
2023/09/14 10:52:42;;;;;;;0.50;0.20;;;;;;;20.55;62.56;100861.38;5006354;28;20456;-51
2023/09/14 10:55:10;;;;;;;0.40;0.20;;;;;;;20.57;61.14;100853.22;5012285;28;20540;-51
2023/09/14 10:57:40;;;;;;;0.40;0.20;;;;;;;21.00;61.37;100854.13;5005966;28;20878;-51
2023/09/14 11:00:11;;;;;;;0.50;0.20;;;;;;;20.83;62.81;100854.28;5005898;28;20471;-51
2023/09/14 11:02:51;;;;;;;0.40;0.20;;;;;;;21.39;61.53;100847.19;5008112;28;21077;-51
2023/09/14 11:05:19;;;;;;;0.40;0.20;;;;;;;21.06;60.82;100844.75;5003598;28;20449;-50
2023/09/14 11:08:00;;;;;;;0.40;0.20;;;;;;;20.77;60.92;100841.16;5010146;28;20488;-51
2023/09/14 11:10:29;;;;;;;0.50;0.20;;;;;;;21.08;61.21;100848.22;5000498;28;20436;-51
2023/09/14 11:13:18;;;;;;;0.50;0.20;;;;;;;20.97;61.35;100833.56;5004299;28;20456;-52
2023/09/14 11:15:47;;;;;;;0.50;0.30;;;;;;;21.06;61.37;100828.50;5003735;28;20529;-50
2023/09/14 11:18:17;;;;;;;0.47;0.20;;;;;;;21.64;59.45;100835.59;5005156;28;20939;-50
2023/09/14 11:20:46;;;;;;;0.50;0.20;;;;;;;21.33;60.46;100831.31;5003320;28;20525;-51
2023/09/14 11:23:14;;;;;;;0.40;0.20;;;;;;;21.46;59.38;100833.13;5012495;28;20505;-51
2023/09/14 11:25:43;;;;;;;0.50;0.20;;;;;;;21.42;61.20;100823.50;5002490;28;20496;-51